createdAt,value
2018-03-26T00:02:16.539Z,7.71
2018-03-26T00:04:44.058Z,7.79
2018-03-26T00:07:11.616Z,7.69
2018-03-26T00:09:39.165Z,7.74
2018-03-26T00:12:06.692Z,7.75
2018-03-26T00:14:34.248Z,7.94
2018-03-26T00:17:01.780Z,7.85
2018-03-26T00:19:29.310Z,7.78
2018-03-26T00:21:56.836Z,7.88
2018-03-26T00:24:24.358Z,7.68
2018-03-26T00:26:51.878Z,7.67
2018-03-26T00:29:19.410Z,7.72
2018-03-26T00:31:46.935Z,7.89
2018-03-26T00:34:14.465Z,7.72
2018-03-26T00:36:41.995Z,7.75
2018-03-26T00:39:09.524Z,7.62
2018-03-26T00:41:37.070Z,7.77
2018-03-26T00:44:04.598Z,7.62
2018-03-26T00:46:32.127Z,7.65
2018-03-26T00:48:59.653Z,7.71
2018-03-26T00:51:27.193Z,7.70
2018-03-26T00:53:54.713Z,7.66
2018-03-26T00:56:22.224Z,7.72
2018-03-26T00:58:49.760Z,7.75
2018-03-26T01:01:17.283Z,7.69
2018-03-26T01:03:44.815Z,7.89
2018-03-26T01:06:12.352Z,7.95
2018-03-26T01:08:39.875Z,8.01
2018-03-26T01:11:07.450Z,8.01
2018-03-26T01:13:34.977Z,7.99
2018-03-26T01:16:02.510Z,8.00
2018-03-26T01:18:30.035Z,8.05
2018-03-26T01:20:57.555Z,7.87
2018-03-26T01:23:25.069Z,8.01
2018-03-26T01:25:52.622Z,7.85
2018-03-26T01:28:20.154Z,7.99
2018-03-26T01:30:47.666Z,7.95
2018-03-26T01:33:15.203Z,7.84
2018-03-26T01:35:42.735Z,7.96
2018-03-26T01:38:10.272Z,8.02
2018-03-26T01:40:37.803Z,7.99
2018-03-26T01:43:05.334Z,7.85
2018-03-26T01:45:32.880Z,7.94
2018-03-26T01:48:00.413Z,8.04
2018-03-26T01:50:27.938Z,7.89
2018-03-26T01:52:55.469Z,7.91
2018-03-26T01:55:23.008Z,8.03
2018-03-26T01:57:50.546Z,7.99
2018-03-26T02:00:18.091Z,7.97
2018-03-26T02:02:45.634Z,7.71
2018-03-26T02:05:13.154Z,7.60
2018-03-26T02:07:40.683Z,7.64
2018-03-26T02:10:08.202Z,7.70
2018-03-26T02:12:35.771Z,7.65
2018-03-26T02:15:03.331Z,7.71
2018-03-26T02:17:30.870Z,7.66
2018-03-26T02:19:58.402Z,7.62
2018-03-26T02:22:25.945Z,7.58
2018-03-26T02:24:53.474Z,7.63
2018-03-26T02:27:21.009Z,7.63
2018-03-26T02:29:48.592Z,7.55
2018-03-26T02:32:16.128Z,7.58
2018-03-26T02:34:43.662Z,7.57
2018-03-26T02:37:11.198Z,7.54
2018-03-26T02:39:38.714Z,7.62
2018-03-26T02:42:06.237Z,7.65
2018-03-26T02:44:33.798Z,7.65
2018-03-26T02:47:01.350Z,7.52
2018-03-26T02:49:28.883Z,7.57
2018-03-26T02:51:56.404Z,7.66
2018-03-26T02:54:23.947Z,7.59
2018-03-26T02:56:51.460Z,7.51
2018-03-26T02:59:19.001Z,7.62
2018-03-26T03:01:46.540Z,7.57
2018-03-26T03:04:14.088Z,7.63
2018-03-26T03:06:41.618Z,7.74
2018-03-26T03:09:09.168Z,7.76
2018-03-26T03:11:36.697Z,7.57
2018-03-26T03:14:04.212Z,7.60
2018-03-26T03:16:31.750Z,7.48
2018-03-26T03:18:59.292Z,7.48
2018-03-26T03:21:26.813Z,7.60
2018-03-26T03:23:54.361Z,7.49
2018-03-26T03:26:21.882Z,7.58
2018-03-26T03:28:49.481Z,7.72
2018-03-26T03:31:17.013Z,7.51
2018-03-26T03:33:44.549Z,7.52
2018-03-26T03:36:12.071Z,7.65
2018-03-26T03:38:39.618Z,7.78
2018-03-26T03:41:07.145Z,7.76
2018-03-26T03:43:34.670Z,7.71
2018-03-26T03:46:02.204Z,7.80
2018-03-26T03:48:29.723Z,7.75
2018-03-26T03:50:57.303Z,7.79
2018-03-26T03:53:24.809Z,7.83
2018-03-26T03:55:52.368Z,7.78
2018-03-26T03:58:19.902Z,7.84
2018-03-26T04:00:47.421Z,7.69
2018-03-26T04:03:14.947Z,7.77
2018-03-26T04:05:42.501Z,7.48
2018-03-26T04:08:10.025Z,7.36
2018-03-26T04:10:37.544Z,7.57
2018-03-26T04:13:05.074Z,7.61
2018-03-26T04:15:32.606Z,7.66
2018-03-26T04:18:00.136Z,7.69
2018-03-26T04:20:27.664Z,7.72
2018-03-26T04:22:55.236Z,7.65
2018-03-26T04:25:22.815Z,7.60
2018-03-26T04:27:50.341Z,7.55
2018-03-26T04:30:17.918Z,7.50
2018-03-26T04:32:45.451Z,7.59
2018-03-26T04:35:12.980Z,7.66
2018-03-26T04:37:40.511Z,7.65
2018-03-26T04:40:08.030Z,7.66
2018-03-26T04:42:35.554Z,7.60
2018-03-26T04:45:03.104Z,7.64
2018-03-26T04:47:30.709Z,7.60
2018-03-26T04:49:58.249Z,7.67
2018-03-26T04:52:25.766Z,7.69
2018-03-26T04:54:53.290Z,7.74
2018-03-26T04:57:20.820Z,7.64
2018-03-26T04:59:48.368Z,7.60
2018-03-26T05:02:15.927Z,7.32
2018-03-26T05:04:43.426Z,7.21
2018-03-26T05:07:10.962Z,7.31
2018-03-26T05:09:38.486Z,7.03
2018-03-26T05:12:06.025Z,7.21
2018-03-26T05:14:33.536Z,7.37
2018-03-26T05:17:01.067Z,7.35
2018-03-26T05:19:28.607Z,7.41
2018-03-26T06:43:53.097Z,7.01
2018-03-26T06:46:20.610Z,6.97
2018-03-26T06:48:48.125Z,6.89
2018-03-26T06:51:15.638Z,7.00
2018-03-26T06:53:43.318Z,7.29
2018-03-26T06:56:10.841Z,7.52
2018-03-26T06:58:38.402Z,7.42
2018-03-26T07:01:05.926Z,7.34
2018-03-26T07:03:33.454Z,7.27
2018-03-26T07:06:00.977Z,7.33
2018-03-26T07:08:28.511Z,7.34
2018-03-26T07:10:56.031Z,7.35
2018-03-26T07:13:23.549Z,7.39
2018-03-26T07:15:51.083Z,7.67
2018-03-26T07:18:18.610Z,8.00
2018-03-26T07:20:46.135Z,8.12
2018-03-26T07:23:13.654Z,8.33
2018-03-26T07:25:41.170Z,8.45
2018-03-26T07:28:08.720Z,8.53
2018-03-26T07:30:36.273Z,8.51
2018-03-26T07:33:03.792Z,8.61
2018-03-26T07:35:31.333Z,8.61
2018-03-26T07:37:58.858Z,8.64
2018-03-26T07:40:26.401Z,8.44
2018-03-26T07:42:53.925Z,8.52
2018-03-26T07:45:21.449Z,8.75
2018-03-26T07:47:48.979Z,8.88
2018-03-26T07:50:16.504Z,8.69
2018-03-26T07:52:44.041Z,8.68
2018-03-26T07:55:11.569Z,8.46
2018-03-26T07:57:39.087Z,8.70
2018-03-26T08:00:06.618Z,8.45
2018-03-26T08:02:34.145Z,8.39
2018-03-26T08:05:01.662Z,8.35
2018-03-26T08:07:29.195Z,8.27
2018-03-26T08:09:56.778Z,8.27
2018-03-26T08:12:24.266Z,8.34
2018-03-26T08:14:51.808Z,8.63
2018-03-26T08:17:19.374Z,8.33
2018-03-26T08:19:46.880Z,8.33
2018-03-26T08:22:14.392Z,8.21
2018-03-26T08:24:41.913Z,8.22
2018-03-26T08:27:09.445Z,8.36
2018-03-26T08:29:36.958Z,8.43
2018-03-26T08:32:04.475Z,8.55
2018-03-26T08:34:31.997Z,8.63
2018-03-26T08:36:59.540Z,8.59
2018-03-26T08:39:27.066Z,8.70
2018-03-26T08:41:54.583Z,8.47
2018-03-26T08:44:22.111Z,8.60
2018-03-26T08:46:49.640Z,8.95
2018-03-26T08:49:17.178Z,8.66
2018-03-26T08:51:44.696Z,8.56
2018-03-26T08:54:12.223Z,8.52
2018-03-26T08:56:39.754Z,8.88
2018-03-26T08:59:07.280Z,8.80
2018-03-26T09:01:34.819Z,8.45
2018-03-26T09:04:02.370Z,8.48
2018-03-26T09:06:29.889Z,8.66
2018-03-26T09:08:57.418Z,8.86
2018-03-26T09:11:24.940Z,8.75
2018-03-26T09:13:52.466Z,8.68
2018-03-26T09:16:19.988Z,8.96
2018-03-26T09:18:47.521Z,9.04
2018-03-26T09:21:15.058Z,8.92
2018-03-26T09:23:42.734Z,8.98
2018-03-26T09:26:10.262Z,8.92
2018-03-26T09:28:37.791Z,9.04
2018-03-26T09:31:05.364Z,8.90
2018-03-26T09:33:32.896Z,8.90
2018-03-26T09:36:00.538Z,9.04
2018-03-26T09:38:28.063Z,8.97
2018-03-26T09:40:55.591Z,8.95
2018-03-26T09:43:23.110Z,8.88
2018-03-26T09:45:50.633Z,9.24
2018-03-26T09:48:18.168Z,9.03
2018-03-26T09:50:45.695Z,9.41
2018-03-26T09:53:13.259Z,9.30
2018-03-26T09:55:40.770Z,9.64
2018-03-26T09:58:08.337Z,9.20
2018-03-26T10:00:41.534Z,9.16
2018-03-26T10:03:09.053Z,9.33
2018-03-26T10:05:36.566Z,9.67
2018-03-26T10:08:04.163Z,9.54
2018-03-26T10:10:31.706Z,9.57
2018-03-26T10:12:59.261Z,9.62
2018-03-26T10:15:26.818Z,9.42
2018-03-26T10:17:54.341Z,9.08
2018-03-26T10:20:21.869Z,9.26
2018-03-26T10:22:49.399Z,9.18
2018-03-26T10:25:16.971Z,8.89
2018-03-26T10:27:45.274Z,8.98
2018-03-26T10:30:12.795Z,8.95
2018-03-26T10:32:40.326Z,8.99
2018-03-26T10:35:07.855Z,8.76
2018-03-26T10:37:35.370Z,8.92
2018-03-26T10:40:02.899Z,8.82
2018-03-26T10:42:30.436Z,8.71
2018-03-26T10:44:57.955Z,9.07
2018-03-26T10:47:25.535Z,9.14
2018-03-26T10:49:53.066Z,9.01
2018-03-26T10:52:20.598Z,9.16
2018-03-26T10:54:48.139Z,8.88
2018-03-26T10:57:15.675Z,8.85
2018-03-26T10:59:43.210Z,8.83
2018-03-26T11:02:10.725Z,8.63
2018-03-26T11:04:38.245Z,8.74
2018-03-26T11:07:05.764Z,8.72
2018-03-26T11:09:33.285Z,8.54
2018-03-26T11:12:00.807Z,8.59
2018-03-26T12:36:25.326Z,7.97
2018-03-26T12:38:52.858Z,7.84
2018-03-26T12:41:20.404Z,7.70
2018-03-26T12:43:47.943Z,7.66
2018-03-26T12:46:27.252Z,7.87
2018-03-26T12:48:54.772Z,7.93
2018-03-26T12:51:34.184Z,8.00
2018-03-26T12:54:01.734Z,7.91
2018-03-26T12:56:29.264Z,7.77
2018-03-26T12:58:56.786Z,7.94
2018-03-26T13:01:36.087Z,8.21
2018-03-26T13:04:03.618Z,8.31
2018-03-26T13:06:31.138Z,8.49
2018-03-26T13:08:58.665Z,8.52
2018-03-26T13:11:26.195Z,8.72
2018-03-26T13:13:53.715Z,9.06
2018-03-26T13:16:21.241Z,9.23
2018-03-26T13:18:48.762Z,8.97
2018-03-26T13:21:16.285Z,9.25
2018-03-26T13:23:43.828Z,9.57
2018-03-26T13:26:11.378Z,9.28
2018-03-26T13:28:38.905Z,9.25
2018-03-26T13:31:06.421Z,9.35
2018-03-26T13:33:33.961Z,9.10
2018-03-26T13:36:01.491Z,8.91
2018-03-26T13:38:29.043Z,9.04
2018-03-26T13:40:56.592Z,9.33
2018-03-26T13:43:24.123Z,9.12
2018-03-26T13:45:51.652Z,9.10
2018-03-26T13:48:19.187Z,8.80
2018-03-26T13:50:46.745Z,9.00
2018-03-26T13:53:14.262Z,8.97
2018-03-26T13:55:41.784Z,9.33
2018-03-26T13:58:09.323Z,9.37
2018-03-26T14:00:36.844Z,8.98
2018-03-26T14:03:04.368Z,8.94
2018-03-26T14:05:31.885Z,8.98
2018-03-26T14:07:59.409Z,9.25
2018-03-26T14:10:38.658Z,9.53
2018-03-26T14:13:18.078Z,9.31
2018-03-26T14:15:57.537Z,9.24
2018-03-26T14:18:25.107Z,9.50
2018-03-26T14:20:52.620Z,9.53
2018-03-26T14:23:20.178Z,9.57
2018-03-26T14:25:47.708Z,9.48
2018-03-26T14:28:15.221Z,9.24
2018-03-26T14:30:42.755Z,9.45
2018-03-26T14:33:10.288Z,9.58
2018-03-26T14:35:44.937Z,9.53
2018-03-26T14:38:12.785Z,9.43
2018-03-26T14:40:40.333Z,9.40
2018-03-26T14:43:07.906Z,9.34
2018-03-26T14:45:35.404Z,9.33
2018-03-26T14:48:02.940Z,9.36
2018-03-26T14:50:30.472Z,9.28
2018-03-26T14:52:57.989Z,9.27
2018-03-26T14:55:25.577Z,9.36
2018-03-26T14:57:53.085Z,9.30
2018-03-26T15:00:20.613Z,9.34
2018-03-26T15:02:48.156Z,9.48
2018-03-26T15:05:15.686Z,9.52
2018-03-26T15:07:43.231Z,9.60
2018-03-26T15:10:10.747Z,9.69
2018-03-26T15:12:38.268Z,9.65
2018-03-26T15:15:05.800Z,9.90
2018-03-26T15:17:33.322Z,9.94
2018-03-26T15:20:00.854Z,9.97
2018-03-26T15:22:28.398Z,10.18
2018-03-26T15:24:55.937Z,10.09
2018-03-26T15:27:23.539Z,9.93
2018-03-26T15:29:51.025Z,9.72
2018-03-26T15:32:18.551Z,9.70
2018-03-26T15:34:46.099Z,9.58
2018-03-26T15:37:13.632Z,9.74
2018-03-26T15:39:41.161Z,9.74
2018-03-26T15:42:08.684Z,9.58
2018-03-26T15:44:36.217Z,9.48
2018-03-26T15:47:03.737Z,9.40
2018-03-26T15:49:31.258Z,9.38
2018-03-26T15:51:58.787Z,9.29
2018-03-26T15:54:26.309Z,9.36
2018-03-26T15:56:53.837Z,9.28
2018-03-26T15:59:21.368Z,9.21
2018-03-26T16:01:48.889Z,9.17
2018-03-26T16:04:16.414Z,9.18
2018-03-26T16:06:43.946Z,9.28
2018-03-26T16:09:11.469Z,9.24
2018-03-26T16:11:38.985Z,9.09
2018-03-26T16:14:06.505Z,9.18
2018-03-26T16:16:34.034Z,9.23
2018-03-26T16:19:01.594Z,9.15
2018-03-26T16:21:29.113Z,9.13
2018-03-26T16:23:56.663Z,9.14
2018-03-26T16:26:24.173Z,9.15
2018-03-26T16:28:51.697Z,9.16
2018-03-26T16:31:19.217Z,9.04
2018-03-26T16:33:46.819Z,9.01
2018-03-26T16:36:14.356Z,8.97
2018-03-26T16:38:41.881Z,8.87
2018-03-26T16:41:09.413Z,8.71
2018-03-26T16:43:36.946Z,8.58
2018-03-26T16:46:04.459Z,8.46
2018-03-26T16:48:31.991Z,8.49
2018-03-26T16:50:59.517Z,8.40
2018-03-26T16:53:27.039Z,8.23
2018-03-26T16:55:54.554Z,8.13
2018-03-26T16:58:22.070Z,8.03
2018-03-26T17:00:49.597Z,7.99
2018-03-26T17:03:17.117Z,7.96
2018-03-26T17:05:44.650Z,7.81
2018-03-26T17:08:12.211Z,7.73
2018-03-26T17:10:39.726Z,7.77
2018-03-26T17:13:07.253Z,7.83
2018-03-26T17:15:34.771Z,7.65
2018-03-26T17:18:02.303Z,7.47
2018-03-26T17:20:29.859Z,7.42
2018-03-26T17:22:57.390Z,7.32
2018-03-26T17:25:24.929Z,7.38
2018-03-26T17:27:52.454Z,7.29
2018-03-26T17:30:19.976Z,7.20
2018-03-26T17:32:47.498Z,7.05
2018-03-26T17:35:15.018Z,7.05
2018-03-26T17:37:42.542Z,7.11
2018-03-26T17:40:10.055Z,7.02
2018-03-26T17:42:37.573Z,6.98
2018-03-26T17:45:05.097Z,6.89
2018-03-26T17:47:32.611Z,6.84
2018-03-26T17:50:00.132Z,6.76
2018-03-26T17:52:27.659Z,6.73
2018-03-26T17:54:55.205Z,6.65
2018-03-26T17:57:22.732Z,6.64
2018-03-26T17:59:50.249Z,6.54
2018-03-26T18:02:17.765Z,6.50
2018-03-26T18:04:45.282Z,6.36
2018-03-26T18:07:12.812Z,6.46
2018-03-26T18:09:40.364Z,6.30
2018-03-26T18:12:07.878Z,6.25
2018-03-26T18:14:35.412Z,6.28
2018-03-26T18:17:02.940Z,6.24
2018-03-26T18:19:30.477Z,6.23
2018-03-26T18:21:58.001Z,6.12
2018-03-26T18:24:25.533Z,6.11
2018-03-26T18:26:53.064Z,6.04
2018-03-26T18:29:20.581Z,5.89
2018-03-26T18:31:48.094Z,5.88
2018-03-26T18:34:15.623Z,5.77
2018-03-26T18:36:43.157Z,5.82
2018-03-26T18:39:10.669Z,5.75
2018-03-26T18:41:38.185Z,5.75
2018-03-26T18:44:05.704Z,5.64
2018-03-26T18:46:33.226Z,5.70
2018-03-26T18:49:00.759Z,5.74
2018-03-26T18:51:28.282Z,5.66
2018-03-26T18:53:55.793Z,5.51
2018-03-26T18:56:23.330Z,5.48
2018-03-26T18:58:50.844Z,5.48
2018-03-26T19:01:18.381Z,5.65
2018-03-26T19:03:45.910Z,5.45
2018-03-26T19:06:13.424Z,5.35
2018-03-26T19:08:40.958Z,5.48
2018-03-26T19:11:08.473Z,5.35
2018-03-26T19:13:35.985Z,5.24
2018-03-26T19:16:03.524Z,5.24
2018-03-26T19:18:31.046Z,5.16
2018-03-26T19:20:58.562Z,5.12
2018-03-26T19:23:26.082Z,5.09
2018-03-26T19:25:53.607Z,5.13
2018-03-26T19:28:21.128Z,5.00
2018-03-26T19:30:48.655Z,5.05
2018-03-26T19:33:16.187Z,5.02
2018-03-26T19:35:43.702Z,5.13
2018-03-26T19:38:11.217Z,5.10
2018-03-26T19:40:38.734Z,5.18
2018-03-26T19:43:06.270Z,5.14
2018-03-26T19:45:33.783Z,5.17
2018-03-26T19:48:01.310Z,5.07
2018-03-26T19:50:28.836Z,5.00
2018-03-26T19:52:56.345Z,5.06
2018-03-26T19:55:23.886Z,5.05
2018-03-26T19:57:51.411Z,4.99
2018-03-26T20:00:18.944Z,4.81
2018-03-26T20:02:46.461Z,4.87
2018-03-26T20:05:13.993Z,4.74
2018-03-26T20:07:41.519Z,4.69
2018-03-26T20:10:09.042Z,4.67
2018-03-26T20:12:36.569Z,4.61
2018-03-26T20:15:04.091Z,4.61
2018-03-26T20:17:31.625Z,4.86
2018-03-26T20:19:59.148Z,4.81
2018-03-26T20:22:26.678Z,4.73
2018-03-26T20:24:54.206Z,4.64
2018-03-26T20:27:21.731Z,4.76
2018-03-26T20:29:49.268Z,4.79
2018-03-26T20:32:16.777Z,4.89
2018-03-26T20:34:44.331Z,4.64
2018-03-26T20:37:11.853Z,4.73
2018-03-26T20:39:39.403Z,4.80
2018-03-26T20:42:07.076Z,4.72
2018-03-26T20:44:34.650Z,4.79
2018-03-26T20:47:02.237Z,4.89
2018-03-26T20:49:29.760Z,4.72
2018-03-26T20:51:57.281Z,4.78
2018-03-26T20:54:24.807Z,4.77
2018-03-26T20:56:52.336Z,4.69
2018-03-26T20:59:19.858Z,4.80
2018-03-26T21:01:47.384Z,4.72
2018-03-26T21:04:14.939Z,4.76
2018-03-26T21:06:42.473Z,4.73
2018-03-26T21:09:10.007Z,4.73
2018-03-26T21:11:37.525Z,4.61
2018-03-26T21:14:05.061Z,4.61
2018-03-26T21:16:32.581Z,4.63
2018-03-26T21:19:00.102Z,4.64
2018-03-26T21:21:27.628Z,4.67
2018-03-26T21:23:55.154Z,4.69
2018-03-26T21:26:22.684Z,4.70
2018-03-26T21:28:50.210Z,4.79
2018-03-26T21:31:17.735Z,4.67
2018-03-26T21:33:45.259Z,4.72
2018-03-26T21:36:12.776Z,4.68
2018-03-26T21:38:40.301Z,4.55
2018-03-26T21:41:07.825Z,4.65
2018-03-26T21:43:35.349Z,4.70
2018-03-26T21:46:02.874Z,4.57
2018-03-26T21:48:30.406Z,4.52
2018-03-26T21:50:57.931Z,4.77
2018-03-26T21:53:25.466Z,4.85
2018-03-26T21:55:52.985Z,4.68
2018-03-26T21:58:20.520Z,4.65
2018-03-26T22:00:48.042Z,4.68
2018-03-26T22:03:15.573Z,4.69
2018-03-26T22:05:43.098Z,4.81
2018-03-26T22:08:10.644Z,4.81
2018-03-26T22:10:38.166Z,4.64
2018-03-26T22:13:05.702Z,4.60
2018-03-26T22:15:33.236Z,4.67
2018-03-26T22:18:00.773Z,4.50
2018-03-26T22:20:28.301Z,4.48
2018-03-26T22:22:55.833Z,4.47
2018-03-26T22:25:23.369Z,4.63
2018-03-26T22:27:50.898Z,4.68
2018-03-26T22:30:18.417Z,4.54
2018-03-26T22:32:45.933Z,4.54
2018-03-26T22:35:13.452Z,4.66
2018-03-26T22:37:40.995Z,4.63
2018-03-26T22:40:08.523Z,4.53
2018-03-26T22:42:36.061Z,4.64
2018-03-26T22:45:03.586Z,4.42
2018-03-26T22:47:31.118Z,4.65
2018-03-26T22:49:58.630Z,4.62
2018-03-26T22:52:26.171Z,4.43
2018-03-26T22:54:53.728Z,4.49
2018-03-26T22:57:21.245Z,4.47
2018-03-26T22:59:48.770Z,4.66
2018-03-26T23:02:16.293Z,4.42
2018-03-26T23:04:43.823Z,4.43
2018-03-26T23:07:11.377Z,4.23
2018-03-26T23:09:38.897Z,4.45
2018-03-26T23:12:06.425Z,4.54
2018-03-26T23:14:33.965Z,4.31
2018-03-26T23:17:01.487Z,4.39
2018-03-26T23:19:29.019Z,4.41
2018-03-26T23:21:56.537Z,4.39
2018-03-26T23:24:24.068Z,4.47
2018-03-26T23:26:51.597Z,4.42
2018-03-26T23:29:19.113Z,4.37
2018-03-26T23:31:46.641Z,4.24
2018-03-26T23:34:14.173Z,4.19
2018-03-26T23:36:41.693Z,4.14
2018-03-26T23:39:09.216Z,4.28
2018-03-26T23:41:36.752Z,4.12
2018-03-26T23:44:04.272Z,4.27
2018-03-26T23:46:31.792Z,4.37
2018-03-26T23:48:59.323Z,4.21
2018-03-26T23:51:26.829Z,4.19
2018-03-26T23:53:54.354Z,4.14
2018-03-26T23:56:21.889Z,4.33
2018-03-26T23:58:49.412Z,4.26
